Time;durP1;ratioP1;P1;durP2;ratioP2;P2;SDS_P1;SDS_P2;PMS_P1;PMS_P2;Temp;Humidity;BMP_temperature;BMP_pressure;BME280_temperature;BME280_humidity;BME280_pressure;Samples;Min_cycle;Max_cycle;Signal;HPM_P1;HPM_P2
2020/12/29 00:01:36;;;;;;;13.80;9.20;;;9.20;73.60;;;;;;5010204;28;20034;-78
2020/12/29 00:04:07;;;;;;;14.45;9.13;;;9.20;73.60;;;;;;5010596;28;20030;-77
2020/12/29 00:06:33;;;;;;;12.40;8.07;;;9.20;73.60;;;;;;5008125;28;20105;-76
2020/12/29 00:08:58;;;;;;;15.70;10.55;;;9.20;73.80;;;;;;5010990;28;20116;-77
2020/12/29 00:11:25;;;;;;;14.02;9.55;;;9.10;74.00;;;;;;4972891;28;20424;-77
2020/12/29 00:13:52;;;;;;;14.43;10.07;;;9.00;74.10;;;;;;5008041;28;20130;-76
2020/12/29 00:16:17;;;;;;;15.25;9.85;;;9.00;74.20;;;;;;5010308;28;20530;-76
2020/12/29 00:18:43;;;;;;;14.77;9.52;;;9.00;74.40;;;;;;5010623;28;20022;-76
2020/12/29 00:21:16;;;;;;;14.65;9.43;;;8.90;74.40;;;;;;5010483;28;20030;-76
2020/12/29 00:23:42;;;;;;;;;;;8.80;75.00;;;;;;4993441;28;20113;-76
2020/12/29 00:26:08;;;;;;;14.73;8.82;;;9.00;74.30;;;;;;5011255;28;19993;-76
2020/12/29 00:28:33;;;;;;;14.32;8.50;;;9.00;74.40;;;;;;5010601;28;20072;-75
2020/12/29 00:30:59;;;;;;;12.32;8.68;;;9.00;74.40;;;;;;4993575;28;20057;-76
2020/12/29 00:33:24;;;;;;;12.80;8.57;;;9.00;74.30;;;;;;5010242;28;20061;-76
2020/12/29 00:35:50;;;;;;;14.43;9.38;;;9.10;74.40;;;;;;5010700;28;20468;-76
2020/12/29 00:38:16;;;;;;;15.93;8.13;;;9.10;74.30;;;;;;5009936;28;20112;-76
2020/12/29 00:40:41;;;;;;;13.80;8.88;;;9.10;74.20;;;;;;5005577;28;20034;-76
2020/12/29 00:43:07;;;;;;;13.27;8.38;;;9.10;74.10;;;;;;4985754;28;20096;-76
2020/12/29 00:45:33;;;;;;;11.02;7.60;;;9.10;73.90;;;;;;5009603;28;20400;-76
2020/12/29 00:47:58;;;;;;;12.07;8.63;;;9.10;73.90;;;;;;5009478;28;20041;-76
2020/12/29 00:50:24;;;;;;;12.45;8.23;;;9.10;73.90;;;;;;4995239;28;20038;-76
2020/12/29 00:52:51;;;;;;;12.25;8.30;;;9.10;73.90;;;;;;4997168;28;20049;-76
2020/12/29 00:55:16;;;;;;;14.93;8.23;;;9.10;73.90;;;;;;5009709;28;20029;-76
2020/12/29 00:57:42;;;;;;;12.63;8.48;;;9.10;73.80;;;;;;5010278;28;20364;-76
2020/12/29 01:00:07;;;;;;;11.45;7.97;;;9.10;73.80;;;;;;4985909;28;20045;-76
2020/12/29 01:02:33;;;;;;;12.15;7.35;;;9.10;73.80;;;;;;4998733;28;20069;-76
2020/12/29 01:04:59;;;;;;;12.93;9.27;;;9.20;73.70;;;;;;5010024;28;20037;-76
2020/12/29 01:07:24;;;;;;;13.90;9.05;;;9.20;73.60;;;;;;5006928;28;20048;-76
2020/12/29 01:09:50;;;;;;;12.35;8.65;;;9.20;73.50;;;;;;4999145;28;20033;-76
2020/12/29 01:12:15;;;;;;;10.50;7.32;;;9.20;73.50;;;;;;5004520;28;20030;-76
2020/12/29 01:14:41;;;;;;;11.05;7.30;;;9.20;73.50;;;;;;5008570;28;20050;-76
2020/12/29 01:17:07;;;;;;;11.20;7.85;;;9.30;73.40;;;;;;5005304;28;20109;-76
2020/12/29 01:19:32;;;;;;;12.48;7.63;;;9.20;73.40;;;;;;5009871;28;20033;-76
2020/12/29 01:21:58;;;;;;;12.68;8.15;;;9.20;73.30;;;;;;5009135;28;20026;-76
2020/12/29 01:24:23;;;;;;;11.35;7.53;;;9.20;73.30;;;;;;4990505;28;20038;-76
2020/12/29 01:26:49;;;;;;;11.27;7.18;;;9.20;73.30;;;;;;4999082;28;20038;-76
2020/12/29 01:29:14;;;;;;;10.75;7.50;;;9.30;73.40;;;;;;4999953;28;20401;-76
2020/12/29 01:31:40;;;;;;;11.07;7.75;;;9.30;73.20;;;;;;4982871;28;20033;-76
2020/12/29 01:34:06;;;;;;;10.43;6.53;;;9.30;73.10;;;;;;5009041;28;20125;-76
2020/12/29 01:36:31;;;;;;;9.63;6.57;;;9.30;73.10;;;;;;5009166;28;20029;-76
2020/12/29 01:38:57;;;;;;;12.82;8.45;;;9.20;72.80;;;;;;4990774;28;20066;-76
2020/12/29 01:41:23;;;;;;;10.77;7.05;;;9.20;72.90;;;;;;5000859;28;20038;-76
2020/12/29 01:43:49;;;;;;;13.60;8.07;;;9.20;72.90;;;;;;4998934;28;20044;-76
2020/12/29 01:46:15;;;;;;;9.95;6.60;;;9.20;72.90;;;;;;5004705;28;20152;-76
2020/12/29 01:48:41;;;;;;;10.27;7.07;;;9.20;72.80;;;;;;5007876;28;20153;-75
2020/12/29 01:51:07;;;;;;;10.55;6.78;;;9.20;72.80;;;;;;4995332;28;20044;-75
2020/12/29 01:53:34;;;;;;;12.88;6.45;;;9.20;72.80;;;;;;4992192;28;20034;-76
2020/12/29 01:56:02;;;;;;;11.20;7.20;;;9.20;72.80;;;;;;5007820;28;20030;-74
2020/12/29 01:58:28;;;;;;;12.23;7.57;;;9.20;72.70;;;;;;5007431;28;20144;-76
2020/12/29 02:00:54;;;;;;;10.25;7.15;;;9.20;72.60;;;;;;5006122;28;20123;-76
2020/12/29 02:03:19;;;;;;;15.07;8.18;;;9.20;72.60;;;;;;5010367;28;20114;-76
2020/12/29 02:05:48;;;;;;;11.93;7.28;;;9.20;72.50;;;;;;4996845;28;20076;-75
2020/12/29 02:08:19;;;;;;;10.02;7.13;;;9.20;72.50;;;;;;4991116;28;20134;-76
2020/12/29 02:10:45;;;;;;;12.77;7.72;;;9.20;72.60;;;;;;5000982;28;20088;-76
2020/12/29 02:13:11;;;;;;;11.38;7.07;;;9.20;72.50;;;;;;5010138;28;20057;-76
2020/12/29 02:15:36;;;;;;;9.93;7.18;;;9.20;72.50;;;;;;5003722;28;20054;-76
2020/12/29 02:18:02;;;;;;;11.20;6.75;;;9.20;72.50;;;;;;4991794;28;20483;-75
2020/12/29 02:20:28;;;;;;;11.30;7.38;;;9.20;72.50;;;;;;5009736;28;20033;-76
2020/12/29 02:22:54;;;;;;;13.38;7.25;;;9.10;72.40;;;;;;5010611;28;20044;-76
2020/12/29 02:25:19;;;;;;;11.52;7.35;;;9.20;72.50;;;;;;5003835;28;20165;-76
2020/12/29 02:27:50;;;;;;;11.90;8.43;;;9.10;72.40;;;;;;5001799;28;20045;-75
2020/12/29 02:30:18;;;;;;;9.85;7.20;;;9.10;72.50;;;;;;5009697;28;20057;-76
2020/12/29 02:32:44;;;;;;;11.82;8.27;;;9.20;72.50;;;;;;5009513;28;20088;-76
2020/12/29 02:35:11;;;;;;;9.57;7.38;;;9.20;72.50;;;;;;5008012;28;20030;-76
2020/12/29 02:37:37;;;;;;;11.73;7.25;;;9.20;72.60;;;;;;4976263;28;20037;-75
2020/12/29 02:40:04;;;;;;;10.88;7.35;;;9.20;72.70;;;;;;5009851;28;20377;-73
2020/12/29 02:42:29;;;;;;;12.05;7.25;;;9.20;72.70;;;;;;4996212;28;20053;-76
2020/12/29 02:44:55;;;;;;;12.55;8.52;;;9.20;72.70;;;;;;5012017;28;20074;-76
2020/12/29 02:47:21;;;;;;;12.95;7.95;;;9.10;72.70;;;;;;4979286;28;20030;-75
2020/12/29 02:49:46;;;;;;;13.48;7.82;;;9.20;72.80;;;;;;4976557;28;20512;-76
2020/12/29 02:52:13;;;;;;;10.65;7.40;;;9.20;72.80;;;;;;4961344;28;20034;-76
2020/12/29 02:54:39;;;;;;;12.27;8.50;;;9.20;72.80;;;;;;5004204;28;20061;-76
2020/12/29 02:57:04;;;;;;;13.13;8.27;;;9.20;72.80;;;;;;4985695;28;20106;-75
2020/12/29 02:59:30;;;;;;;11.60;8.32;;;9.10;72.80;;;;;;5008245;28;20030;-76
2020/12/29 03:01:56;;;;;;;12.32;8.50;;;9.10;72.90;;;;;;4996749;28;20030;-75
2020/12/29 03:04:22;;;;;;;13.25;8.35;;;9.10;73.00;;;;;;5000810;28;20081;-76
2020/12/29 03:06:48;;;;;;;11.65;7.80;;;9.10;73.10;;;;;;5011491;28;20038;-76
2020/12/29 03:09:14;;;;;;;12.52;9.30;;;9.10;73.00;;;;;;4982358;28;20107;-76
2020/12/29 03:11:40;;;;;;;12.48;8.63;;;9.20;72.80;;;;;;5011995;28;20030;-76
2020/12/29 03:14:08;;;;;;;13.07;8.43;;;9.20;72.90;;;;;;5010783;28;20380;-76
2020/12/29 03:16:34;;;;;;;12.13;8.80;;;9.20;72.80;;;;;;4996558;28;20038;-76
2020/12/29 03:19:01;;;;;;;11.38;8.77;;;9.20;72.80;;;;;;4986278;28;20121;-76
2020/12/29 03:21:27;;;;;;;13.35;10.00;;;9.20;72.80;;;;;;5010335;28;20030;-76
2020/12/29 03:23:53;;;;;;;12.13;8.50;;;9.20;72.80;;;;;;5006582;28;20030;-76
2020/12/29 03:26:19;;;;;;;14.02;9.35;;;9.10;72.80;;;;;;4993338;28;20337;-76
2020/12/29 03:28:45;;;;;;;14.07;8.75;;;9.10;72.90;;;;;;5011103;28;20074;-76
2020/12/29 03:31:11;;;;;;;12.88;9.40;;;9.10;72.90;;;;;;5006416;28;20052;-76
2020/12/29 03:33:37;;;;;;;13.20;8.60;;;9.20;72.90;;;;;;4994867;28;20093;-76
2020/12/29 03:36:03;;;;;;;11.55;8.77;;;9.10;72.90;;;;;;4995724;28;20054;-76
2020/12/29 03:38:29;;;;;;;12.88;9.52;;;9.10;72.80;;;;;;4994718;28;20069;-76
2020/12/29 03:40:55;;;;;;;12.10;8.95;;;9.10;72.90;;;;;;4993883;28;20476;-76
2020/12/29 03:43:21;;;;;;;11.38;8.93;;;9.20;72.80;;;;;;5010804;28;20045;-76
2020/12/29 03:45:48;;;;;;;11.32;8.77;;;9.10;72.60;;;;;;4994197;28;20038;-75
2020/12/29 03:48:16;;;;;;;12.50;9.32;;;9.20;72.60;;;;;;5011491;28;20032;-76
2020/12/29 03:50:42;;;;;;;11.30;8.27;;;9.20;72.70;;;;;;5010328;28;20030;-76
2020/12/29 03:53:08;;;;;;;13.60;9.15;;;9.20;72.70;;;;;;5011187;28;20109;-75
2020/12/29 03:55:35;;;;;;;13.07;9.07;;;9.20;72.60;;;;;;5010898;28;20038;-75
2020/12/29 03:58:01;;;;;;;12.50;8.15;;;9.20;72.60;;;;;;5001965;28;20061;-76
2020/12/29 04:00:27;;;;;;;11.10;8.27;;;9.10;72.40;;;;;;5007525;28;20037;-76
2020/12/29 04:02:52;;;;;;;11.55;8.68;;;9.10;72.40;;;;;;4999723;28;20026;-76
2020/12/29 04:05:18;;;;;;;11.63;8.27;;;9.20;72.40;;;;;;5009916;28;20069;-76
2020/12/29 04:07:45;;;;;;;11.50;8.70;;;9.20;72.40;;;;;;5012257;28;20046;-75
2020/12/29 04:10:11;;;;;;;11.68;8.82;;;9.10;72.40;;;;;;5010517;28;20076;-76
2020/12/29 04:12:37;;;;;;;12.18;8.93;;;9.10;72.50;;;;;;5011397;28;20053;-76
2020/12/29 04:15:05;;;;;;;13.63;9.10;;;9.10;72.50;;;;;;5011828;28;20448;-76
2020/12/29 04:17:38;;;;;;;11.93;8.60;;;9.00;72.50;;;;;;4992770;28;20030;-76
2020/12/29 04:20:07;;;;;;;13.45;9.07;;;9.00;72.50;;;;;;5010042;28;20095;-76
2020/12/29 04:22:34;;;;;;;11.68;8.48;;;9.00;72.60;;;;;;4987689;28;20369;-76
2020/12/29 04:25:00;;;;;;;13.80;8.23;;;9.00;72.80;;;;;;5010162;28;20037;-76
2020/12/29 04:27:26;;;;;;;12.15;9.00;;;9.00;72.80;;;;;;5011002;28;20048;-76
2020/12/29 04:29:52;;;;;;;12.68;8.98;;;9.00;72.80;;;;;;5009098;28;20121;-75
2020/12/29 04:32:18;;;;;;;13.57;9.80;;;9.00;72.90;;;;;;5010048;28;20029;-76
2020/12/29 04:34:45;;;;;;;16.08;9.70;;;9.00;72.80;;;;;;4996526;28;20051;-75
2020/12/29 04:37:12;;;;;;;13.20;9.48;;;9.00;72.80;;;;;;5002930;28;20337;-75
2020/12/29 04:39:37;;;;;;;12.85;9.15;;;9.00;72.80;;;;;;4998809;28;20464;-76
2020/12/29 04:42:05;;;;;;;13.40;9.10;;;9.00;72.80;;;;;;4991853;28;20068;-76
2020/12/29 04:44:31;;;;;;;11.57;8.63;;;9.00;72.90;;;;;;4988747;28;20503;-76
2020/12/29 04:46:57;;;;;;;13.10;9.40;;;9.10;72.90;;;;;;4980740;28;20039;-76
2020/12/29 04:49:23;;;;;;;13.52;9.68;;;9.00;72.80;;;;;;4988712;28;20468;-76
2020/12/29 04:51:57;;;;;;;12.13;8.98;;;9.00;72.80;;;;;;5003806;28;20034;-76
2020/12/29 04:54:25;;;;;;;12.38;9.40;;;9.00;72.80;;;;;;4987006;28;20414;-76
2020/12/29 04:56:55;;;;;;;14.43;10.63;;;9.00;72.70;;;;;;5001047;28;20106;-75
2020/12/29 04:59:21;;;;;;;14.10;10.45;;;9.00;72.90;;;;;;4990497;28;20030;-75
2020/12/29 05:01:47;;;;;;;15.05;10.27;;;8.90;72.90;;;;;;4991450;28;20037;-75
2020/12/29 05:04:13;;;;;;;11.85;8.95;;;8.90;73.00;;;;;;4982760;28;20396;-75
2020/12/29 05:06:39;;;;;;;17.45;10.82;;;9.00;73.10;;;;;;4992069;28;20336;-74
2020/12/29 05:09:05;;;;;;;13.02;9.13;;;9.00;73.10;;;;;;4990511;28;20053;-75
2020/12/29 05:11:34;;;;;;;14.32;11.50;;;8.90;73.10;;;;;;4989174;28;20034;-75
2020/12/29 05:14:00;;;;;;;16.55;10.77;;;8.90;73.00;;;;;;4994435;28;20041;-76
2020/12/29 05:16:26;;;;;;;13.82;10.32;;;8.90;73.20;;;;;;4986512;28;20049;-75
2020/12/29 05:18:52;;;;;;;14.10;10.18;;;8.90;73.20;;;;;;4989817;28;20042;-75
2020/12/29 05:21:18;;;;;;;15.13;9.90;;;8.90;73.40;;;;;;4997638;28;20036;-75
2020/12/29 05:23:44;;;;;;;16.48;11.10;;;8.80;73.60;;;;;;4992255;28;20101;-74
2020/12/29 05:26:12;;;;;;;15.60;11.05;;;8.80;73.80;;;;;;4986335;28;20081;-75
2020/12/29 05:28:38;;;;;;;14.05;10.65;;;8.80;73.80;;;;;;5003047;28;20031;-76
2020/12/29 05:31:05;;;;;;;14.65;9.45;;;8.70;74.00;;;;;;4997586;28;20037;-76
2020/12/29 05:33:31;;;;;;;17.40;11.00;;;8.80;74.10;;;;;;5005790;28;20058;-76
2020/12/29 05:35:58;;;;;;;16.38;11.07;;;8.80;74.10;;;;;;4991826;28;20122;-75
2020/12/29 05:38:25;;;;;;;16.48;10.95;;;8.80;74.30;;;;;;4998195;28;20484;-75
2020/12/29 05:40:51;;;;;;;15.23;10.88;;;8.80;74.30;;;;;;4995296;28;20034;-75
2020/12/29 05:43:28;;;;;;;19.02;13.13;;;8.80;74.40;;;;;;5006171;28;20040;-76
2020/12/29 05:45:54;;;;;;;17.20;11.50;;;8.80;74.20;;;;;;4980970;28;20041;-74
2020/12/29 05:48:20;;;;;;;19.92;12.82;;;8.90;74.20;;;;;;5003442;28;20034;-76
2020/12/29 05:50:45;;;;;;;16.65;12.00;;;8.90;74.20;;;;;;4984526;28;20046;-76
2020/12/29 05:53:11;;;;;;;17.75;13.02;;;8.90;74.20;;;;;;4970278;28;20062;-75
2020/12/29 05:55:37;;;;;;;18.83;12.50;;;8.90;74.20;;;;;;4979288;28;20041;-75
2020/12/29 05:58:08;;;;;;;19.65;13.65;;;8.90;74.30;;;;;;4974051;28;20035;-75
2020/12/29 06:00:35;;;;;;;21.13;14.25;;;8.90;74.30;;;;;;4989435;28;20022;-75
2020/12/29 06:03:02;;;;;;;20.52;14.75;;;8.90;74.60;;;;;;4995297;28;20125;-76
2020/12/29 06:05:30;;;;;;;19.40;12.90;;;8.90;74.70;;;;;;4989213;28;20061;-75
2020/12/29 06:08:01;;;;;;;21.52;12.93;;;8.90;74.60;;;;;;4989921;28;20070;-75
2020/12/29 06:10:29;;;;;;;20.83;14.13;;;8.90;74.60;;;;;;4993936;28;20068;-76
2020/12/29 06:12:57;;;;;;;22.23;13.95;;;9.00;74.50;;;;;;4984978;28;20031;-76
2020/12/29 06:15:28;;;;;;;20.75;14.65;;;9.00;74.40;;;;;;4975084;28;20035;-76
2020/12/29 06:18:01;;;;;;;20.10;13.95;;;9.00;74.40;;;;;;5000255;28;20038;-76
2020/12/29 06:20:44;;;;;;;22.67;15.07;;;9.00;74.40;;;;;;4982009;28;20037;-75
2020/12/29 06:23:13;;;;;;;23.55;15.23;;;9.00;74.50;;;;;;4992866;28;20078;-75
2020/12/29 06:25:41;;;;;;;23.15;13.80;;;9.00;74.60;;;;;;4987900;28;20552;-75
2020/12/29 06:28:07;;;;;;;20.05;13.57;;;8.90;74.70;;;;;;4984781;28;20353;-75
2020/12/29 06:30:35;;;;;;;20.30;14.23;;;8.90;74.70;;;;;;4992253;28;20165;-75
2020/12/29 06:33:01;;;;;;;23.05;16.00;;;8.90;74.90;;;;;;5005203;28;20046;-75
2020/12/29 06:35:27;;;;;;;21.60;14.75;;;8.90;75.00;;;;;;4990408;28;20508;-75
2020/12/29 06:38:06;;;;;;;22.48;14.35;;;8.90;75.10;;;;;;4993236;28;20102;-75
2020/12/29 06:40:32;;;;;;;21.27;14.77;;;8.90;75.00;;;;;;4990071;28;20377;-75
2020/12/29 06:42:58;;;;;;;22.10;14.05;;;8.90;74.90;;;;;;4974627;28;20532;-75
2020/12/29 06:45:31;;;;;;;22.90;16.58;;;8.90;75.00;;;;;;4984215;28;20090;-75
2020/12/29 06:47:57;;;;;;;22.42;15.10;;;8.80;75.20;;;;;;4986279;28;20049;-75
2020/12/29 06:50:28;;;;;;;21.88;14.98;;;8.80;75.30;;;;;;4992138;28;20383;-75
2020/12/29 06:53:02;;;;;;;25.20;16.42;;;8.80;75.40;;;;;;4991269;28;20073;-75
2020/12/29 06:55:36;;;;;;;23.52;15.70;;;8.70;75.50;;;;;;4987768;28;20034;-75
2020/12/29 06:58:02;;;;;;;22.27;15.05;;;8.80;75.70;;;;;;4980396;28;20027;-76
2020/12/29 07:00:28;;;;;;;25.80;16.42;;;8.80;75.60;;;;;;4982944;28;20030;-75
2020/12/29 07:02:54;;;;;;;26.42;17.25;;;8.80;75.60;;;;;;4992630;28;20018;-75
2020/12/29 07:05:22;;;;;;;25.98;18.27;;;8.80;75.60;;;;;;4996714;28;20069;-75
2020/12/29 07:08:06;;;;;;;21.17;14.70;;;8.80;75.50;;;;;;4992266;28;20164;-75
2020/12/29 07:10:35;;;;;;;;;;;8.80;76.00;;;;;;5002850;28;20113;-75
2020/12/29 07:13:13;;;;;;;23.40;16.05;;;8.90;75.20;;;;;;4980113;28;20004;-75
2020/12/29 07:15:55;;;;;;;26.13;17.17;;;8.90;75.10;;;;;;4994316;28;20072;-75
2020/12/29 07:18:28;;;;;;;22.38;15.55;;;8.90;75.10;;;;;;4992633;28;20018;-75
2020/12/29 07:20:56;;;;;;;23.67;16.02;;;8.90;75.10;;;;;;4985226;28;20344;-76
2020/12/29 07:23:25;;;;;;;24.05;15.38;;;8.90;75.10;;;;;;4973996;28;20042;-75
2020/12/29 07:25:53;;;;;;;22.38;14.63;;;8.80;75.20;;;;;;4979445;28;20026;-75
2020/12/29 07:28:23;;;;;;;22.08;14.43;;;8.70;75.40;;;;;;4987337;28;20085;-75
2020/12/29 07:30:50;;;;;;;19.17;11.95;;;8.60;75.30;;;;;;4972878;28;20022;-75
2020/12/29 07:33:20;;;;;;;16.45;11.52;;;8.50;75.30;;;;;;4988893;28;20088;-75
2020/12/29 07:35:46;;;;;;;18.50;11.40;;;8.60;75.40;;;;;;5005800;28;20469;-75
2020/12/29 07:38:13;;;;;;;16.80;11.43;;;8.50;75.20;;;;;;4991081;28;20497;-75
2020/12/29 07:40:39;;;;;;;17.50;11.50;;;8.60;75.10;;;;;;4999087;28;20040;-75
2020/12/29 07:43:06;;;;;;;17.48;11.93;;;8.60;75.00;;;;;;4993585;28;20030;-75
2020/12/29 07:45:32;;;;;;;18.33;12.05;;;8.60;74.80;;;;;;5007626;28;20117;-75
2020/12/29 07:47:59;;;;;;;14.23;8.63;;;8.60;74.80;;;;;;5001656;28;20142;-75
2020/12/29 07:50:26;;;;;;;19.40;10.95;;;8.70;74.80;;;;;;5006753;28;20365;-74
2020/12/29 07:53:03;;;;;;;17.60;11.05;;;8.60;74.70;;;;;;4994622;28;20052;-76
2020/12/29 07:55:29;;;;;;;17.50;10.20;;;8.50;74.50;;;;;;4993471;28;20037;-76
2020/12/29 07:57:55;;;;;;;17.90;10.70;;;8.50;74.90;;;;;;5009608;28;20041;-77
2020/12/29 08:00:21;;;;;;;15.98;9.05;;;8.50;74.90;;;;;;4986679;28;20029;-76
2020/12/29 08:02:52;;;;;;;18.98;12.18;;;8.50;74.90;;;;;;4999550;28;20057;-76
2020/12/29 08:05:25;;;;;;;17.55;10.80;;;8.50;74.70;;;;;;5008885;28;20034;-77
2020/12/29 08:07:55;;;;;;;20.10;11.55;;;8.60;74.70;;;;;;4975421;28;20066;-77
2020/12/29 08:10:25;;;;;;;17.58;10.07;;;8.60;74.40;;;;;;4980108;28;20053;-77
2020/12/29 08:12:57;;;;;;;20.08;12.15;;;8.50;74.60;;;;;;5009813;28;20025;-77
2020/12/29 08:15:39;;;;;;;18.27;10.52;;;8.40;74.80;;;;;;5002673;28;20057;-77
2020/12/29 08:18:08;;;;;;;20.58;12.60;;;8.30;74.80;;;;;;5008489;28;20111;-77
2020/12/29 08:20:49;;;;;;;22.13;14.25;;;8.30;74.80;;;;;;5001394;28;20040;-77
2020/12/29 08:23:18;;;;;;;20.45;12.25;;;8.30;75.00;;;;;;5015531;28;20076;-77
2020/12/29 08:26:00;;;;;;;21.45;13.40;;;8.30;75.00;;;;;;4980351;28;20795;-77
2020/12/29 08:28:28;;;;;;;25.33;14.02;;;8.20;75.10;;;;;;5005255;28;20026;-77
2020/12/29 08:30:55;;;;;;;25.25;14.93;;;8.20;75.20;;;;;;4979573;28;20072;-77
2020/12/29 08:33:24;;;;;;;22.23;13.15;;;8.10;75.20;;;;;;5012939;28;20049;-77
2020/12/29 08:35:56;;;;;;;23.27;12.68;;;7.90;75.20;;;;;;4975748;28;20046;-78
2020/12/29 08:38:22;;;;;;;19.35;10.98;;;7.90;75.20;;;;;;5010887;28;20116;-78
2020/12/29 08:41:04;;;;;;;19.17;10.90;;;7.80;75.50;;;;;;5010390;28;20507;-77
2020/12/29 08:43:32;;;;;;;20.17;12.70;;;7.70;75.50;;;;;;5028639;28;20085;-75
2020/12/29 08:46:05;;;;;;;20.85;11.65;;;7.70;75.50;;;;;;4997302;28;20030;-76
2020/12/29 08:48:31;;;;;;;19.20;11.55;;;7.70;75.70;;;;;;4992361;28;20029;-74
2020/12/29 08:50:58;;;;;;;19.67;11.73;;;7.70;75.90;;;;;;4982063;28;20370;-76
2020/12/29 08:53:25;;;;;;;18.08;10.98;;;7.80;75.90;;;;;;4975261;28;20373;-77
2020/12/29 08:55:51;;;;;;;18.73;11.15;;;7.80;75.90;;;;;;4992565;28;20049;-78
2020/12/29 08:58:24;;;;;;;20.60;12.32;;;7.90;75.80;;;;;;5007698;28;20041;-77
2020/12/29 09:00:50;;;;;;;19.65;11.60;;;7.90;75.80;;;;;;4999978;28;20037;-78
2020/12/29 09:03:23;;;;;;;18.10;10.85;;;7.90;75.80;;;;;;4993635;28;20030;-77
2020/12/29 09:05:54;;;;;;;19.45;11.20;;;8.00;75.80;;;;;;4991879;28;20050;-78
2020/12/29 09:08:30;;;;;;;16.67;10.63;;;8.00;75.60;;;;;;4992883;28;20034;-78
2020/12/29 09:11:12;;;;;;;17.17;10.15;;;8.00;75.50;;;;;;5009866;28;20479;-77
2020/12/29 09:13:58;;;;;;;18.77;11.07;;;8.00;75.10;;;;;;4986219;28;20088;-77
2020/12/29 09:16:24;;;;;;;17.48;10.48;;;7.90;75.20;;;;;;4987762;28;20036;-77
2020/12/29 09:18:50;;;;;;;18.10;10.25;;;7.90;75.40;;;;;;4996601;28;20516;-77
2020/12/29 09:21:25;;;;;;;17.05;11.60;;;7.90;75.50;;;;;;4997654;28;20435;-77
2020/12/29 09:23:59;;;;;;;18.75;10.35;;;7.90;75.30;;;;;;4974252;28;20034;-78
2020/12/29 09:26:25;;;;;;;;;;;7.90;75.90;;;;;;5010389;28;20034;-78
2020/12/29 09:28:50;;;;;;;19.65;11.07;;;8.00;75.00;;;;;;5007143;28;19916;-77
2020/12/29 09:31:26;;;;;;;21.50;12.13;;;8.00;75.10;;;;;;4991358;28;20034;-76
2020/12/29 09:33:52;;;;;;;21.58;12.60;;;7.90;75.20;;;;;;5004732;28;20145;-76
2020/12/29 09:36:23;;;;;;;20.83;12.43;;;7.90;75.40;;;;;;4997411;28;20117;-76
2020/12/29 09:38:50;;;;;;;22.80;12.73;;;7.90;75.60;;;;;;5008306;28;20048;-77
2020/12/29 09:41:16;;;;;;;22.30;13.55;;;7.80;75.80;;;;;;5007430;28;20121;-78
2020/12/29 09:43:44;;;;;;;20.02;11.52;;;7.70;76.20;;;;;;4984603;28;20034;-77
2020/12/29 09:46:10;;;;;;;21.90;13.23;;;7.70;76.30;;;;;;5007353;28;20342;-78
2020/12/29 09:48:35;;;;;;;21.67;12.32;;;7.70;76.40;;;;;;5011239;28;20056;-77
2020/12/29 09:51:01;;;;;;;22.00;13.40;;;7.70;76.60;;;;;;4992973;28;20042;-77
2020/12/29 09:53:27;;;;;;;23.15;13.48;;;7.60;76.90;;;;;;5008317;28;20500;-76
2020/12/29 09:55:54;;;;;;;23.83;12.73;;;7.70;77.00;;;;;;5019286;28;20391;-75
2020/12/29 09:58:20;;;;;;;21.40;12.82;;;7.70;77.00;;;;;;4996966;28;20107;-77
2020/12/29 10:00:47;;;;;;;22.02;12.90;;;7.80;76.90;;;;;;4980474;28;20542;-77
2020/12/29 10:03:13;;;;;;;20.40;11.90;;;7.80;76.90;;;;;;4997887;28;20396;-77
2020/12/29 10:05:39;;;;;;;20.77;12.27;;;7.80;76.90;;;;;;4993755;28;20050;-74
2020/12/29 10:08:05;;;;;;;19.58;11.75;;;7.80;76.80;;;;;;5014173;28;20341;-77
2020/12/29 10:10:30;;;;;;;21.93;12.00;;;7.80;76.70;;;;;;5007856;28;20032;-77
2020/12/29 10:12:56;;;;;;;19.90;11.50;;;7.90;76.90;;;;;;4976038;28;20113;-77
2020/12/29 10:15:22;;;;;;;17.45;10.10;;;7.90;76.70;;;;;;4977543;28;20041;-77
2020/12/29 10:17:47;;;;;;;19.25;11.57;;;8.10;76.40;;;;;;4995838;28;20557;-75
2020/12/29 10:20:14;;;;;;;17.45;10.35;;;8.10;76.20;;;;;;4990583;28;20058;-74
2020/12/29 10:22:40;;;;;;;19.48;10.73;;;8.20;76.00;;;;;;4996859;28;20042;-73
2020/12/29 10:25:10;;;;;;;18.92;11.30;;;8.30;75.70;;;;;;5001769;28;20041;-74
2020/12/29 10:27:36;;;;;;;21.25;11.40;;;8.30;75.60;;;;;;5018443;28;20372;-75
2020/12/29 10:30:02;;;;;;;19.40;10.82;;;8.40;75.40;;;;;;5012784;28;20084;-75
2020/12/29 10:32:28;;;;;;;22.17;12.02;;;8.50;75.10;;;;;;5014282;28;20022;-75
2020/12/29 10:34:54;;;;;;;18.17;10.57;;;8.60;74.90;;;;;;5013096;28;20050;-75
2020/12/29 10:37:19;;;;;;;18.40;11.05;;;8.60;74.80;;;;;;5011541;28;20040;-75
2020/12/29 10:39:46;;;;;;;18.35;11.43;;;8.60;74.80;;;;;;5012474;28;20112;-74
2020/12/29 10:42:11;;;;;;;21.33;11.93;;;8.50;74.80;;;;;;5010290;28;20100;-75
2020/12/29 10:44:37;;;;;;;22.15;11.57;;;8.50;74.80;;;;;;5007898;28;20030;-74
2020/12/29 10:47:03;;;;;;;24.63;14.35;;;8.50;74.70;;;;;;5006379;28;20034;-76
2020/12/29 10:49:29;;;;;;;20.20;11.02;;;8.50;74.80;;;;;;4994850;28;20049;-75
2020/12/29 10:51:55;;;;;;;21.95;12.05;;;8.60;74.90;;;;;;5005362;28;20065;-75
2020/12/29 10:54:20;;;;;;;20.83;12.05;;;8.60;74.90;;;;;;5009180;28;20034;-75
2020/12/29 10:56:46;;;;;;;19.88;12.63;;;8.60;74.80;;;;;;5011344;28;20033;-74
2020/12/29 10:59:12;;;;;;;23.85;13.25;;;8.60;74.90;;;;;;4995340;28;20030;-75
2020/12/29 11:01:38;;;;;;;22.60;13.25;;;8.60;75.00;;;;;;5012626;28;20145;-74
2020/12/29 11:04:03;;;;;;;23.90;14.27;;;8.70;75.00;;;;;;4992983;28;20162;-75
2020/12/29 11:06:29;;;;;;;22.15;13.60;;;8.70;74.90;;;;;;4999044;28;20026;-75
2020/12/29 11:08:55;;;;;;;22.90;13.50;;;8.70;74.80;;;;;;5010430;28;20034;-75
2020/12/29 11:11:20;;;;;;;25.92;15.45;;;8.80;74.90;;;;;;5013019;28;20042;-75
2020/12/29 11:13:47;;;;;;;22.73;13.98;;;8.80;74.90;;;;;;5013586;28;20212;-74
2020/12/29 11:16:14;;;;;;;25.33;15.45;;;8.90;74.70;;;;;;5023231;28;20104;-74
2020/12/29 11:18:41;;;;;;;25.45;15.80;;;9.00;74.40;;;;;;5015320;28;20130;-75
2020/12/29 11:21:06;;;;;;;22.48;14.57;;;9.00;74.10;;;;;;5012946;28;20490;-74
2020/12/29 11:23:32;;;;;;;25.35;15.82;;;9.10;73.90;;;;;;5023350;28;20034;-82
2020/12/29 11:25:58;;;;;;;25.35;15.07;;;9.10;73.70;;;;;;4984323;28;20054;-80
2020/12/29 11:28:24;;;;;;;21.02;15.00;;;9.10;73.60;;;;;;4970332;28;20484;-75
2020/12/29 11:30:49;;;;;;;21.33;13.93;;;9.20;73.40;;;;;;4990877;28;20521;-79
2020/12/29 11:33:15;;;;;;;22.92;13.82;;;9.20;73.40;;;;;;4957857;28;20057;-75
2020/12/29 11:35:43;;;;;;;21.60;14.30;;;9.20;73.20;;;;;;4996427;28;20042;-76
2020/12/29 11:38:09;;;;;;;22.20;14.30;;;9.30;73.20;;;;;;4999435;28;20057;-80
2020/12/29 11:40:34;;;;;;;21.98;12.93;;;9.40;73.20;;;;;;5009220;28;20412;-83
2020/12/29 11:43:00;;;;;;;22.33;13.88;;;9.40;73.20;;;;;;5006991;28;20084;-78
2020/12/29 11:45:25;;;;;;;21.85;14.50;;;9.40;73.10;;;;;;4995255;28;20030;-81
2020/12/29 11:47:51;;;;;;;20.65;14.07;;;9.30;73.10;;;;;;4972373;28;20061;-79
2020/12/29 11:50:17;;;;;;;30.23;19.40;;;9.40;73.10;;;;;;4967941;28;20115;-76
2020/12/29 11:52:43;;;;;;;22.80;16.23;;;9.40;73.10;;;;;;4984430;28;20082;-76
2020/12/29 11:55:08;;;;;;;22.95;14.65;;;9.40;73.00;;;;;;4996547;28;20048;-82
2020/12/29 11:57:34;;;;;;;25.63;15.90;;;9.40;73.00;;;;;;5009435;28;20038;-76
2020/12/29 12:00:00;;;;;;;21.88;13.35;;;9.30;73.20;;;;;;5003073;28;20034;-86
2020/12/29 12:02:25;;;;;;;24.20;15.07;;;9.30;73.40;;;;;;5001282;28;20120;-76
2020/12/29 12:04:51;;;;;;;22.95;14.52;;;9.30;73.50;;;;;;4996568;28;20073;-77
2020/12/29 12:07:16;;;;;;;25.45;15.18;;;9.20;73.40;;;;;;4997705;28;20465;-85
2020/12/29 12:09:42;;;;;;;33.83;22.65;;;9.20;73.50;;;;;;4988898;28;20041;-75
2020/12/29 12:12:08;;;;;;;67.22;40.92;;;9.20;73.60;;;;;;5011566;28;20045;-75
2020/12/29 12:14:33;;;;;;;42.80;26.52;;;9.20;73.60;;;;;;5000108;28;20120;-76
2020/12/29 12:16:59;;;;;;;40.28;24.10;;;9.30;73.60;;;;;;4992726;28;20160;-78
2020/12/29 12:19:25;;;;;;;28.70;19.58;;;9.30;73.50;;;;;;4994578;28;20491;-76
2020/12/29 12:21:50;;;;;;;28.15;16.77;;;9.30;73.50;;;;;;5010781;28;20045;-77
2020/12/29 12:24:16;;;;;;;27.23;17.23;;;9.30;73.40;;;;;;4993914;28;20076;-76
2020/12/29 12:26:42;;;;;;;27.10;16.60;;;9.40;73.50;;;;;;4997453;28;20198;-77
2020/12/29 12:29:08;;;;;;;32.70;21.17;;;9.40;73.60;;;;;;5010004;28;20045;-75
2020/12/29 12:31:33;;;;;;;34.58;22.35;;;9.40;73.50;;;;;;5006978;28;20026;-75
2020/12/29 12:33:59;;;;;;;35.40;22.85;;;9.50;73.50;;;;;;5007917;28;20054;-79
2020/12/29 12:36:24;;;;;;;37.10;22.95;;;9.50;73.60;;;;;;5014207;28;20030;-80
2020/12/29 12:38:50;;;;;;;40.00;22.95;;;9.50;73.70;;;;;;5011847;28;20034;-80
2020/12/29 12:41:16;;;;;;;31.75;21.45;;;9.50;73.80;;;;;;4994591;28;20042;-83
2020/12/29 12:43:43;;;;;;;37.03;21.73;;;9.50;73.90;;;;;;4994414;28;20038;-78